Portada
METAR-TAF:

METAR-TAF

Aeropuertos :

Lima, Perú

Aeropuerto Internacional Jorge Chávez

latitud: 12-00S, longitud: 077-07W, altitud: 12 m

Observación

El informe se hizo hace 1 hora y 0 minutos, a las 01:00 UTC
Viento 6 kt del sur-sureste
Temperatura 18°C
Humedad 83%
Presión 1013 hPa
Visibilidad 10 km o más
Escasas nubes a una altura de 2300 ft
Cielo cubierto a una altura de 3000 ft

METAR: SPJC 240100Z 16006KT 9999 FEW023 OVC030 18/15 Q1013 NOSIG RMK PP000

Hora: 21:00 (02:00 UTC)

Pronóstico

El informe se hizo hace 3 horas y 0 minutos, a las 23:00 UTC
Pronóstico válido del 24 a las 00 UTC al 24 a las 24 UTC
Viento 8 kt del sur
Visibilidad: 8000 m
Nubes dispersas a una altura de 1500 ft
A partir de las 24 a las 060L UTC
Viento 10 kt del sur
Visibilidad 10 km o más
sin nubes por debajo de 1500 m y sin presencia de cumulonimbus.
A partir de las 24 a las 0400 UTC
Viento 10 kt del sur
Visibilidad 10 km o más
sin nubes por debajo de 1500 m y sin presencia de cumulonimbus.
A partir de las 24 a las 0400 UTC
Viento 6 kt del sur
Visibilidad 10 km o más
Nubes dispersas a una altura de 2000 ft
Temporalmente
del 24 a las 12 UTC al 24 a las 14 UTC
Cielo cubierto a una altura de 1500 ft
Evolucionando progresivamente
del 24 a las 18 UTC al 24 a las 20 UTC
Viento 12 kt del sur-suroeste

TAF: SPJC 232300Z 2400/2424 19008KT 8000 SCT015 TX21/2419Z TN17/2411Z FM24060LVA1938 232330 GG TJSJYMYX 232330 SPIMYZYX FTPR93 SPIM 232300 SPHI 232300Z 2400/2424 18010KT CAVOK TX23/2420Z TN18/2411Z FM240400 1LVA1939 232330 GG EGGYYBYA EGZZMSAM KWBCYMYX KWBCYZYX 232330 SPIMYZYX FTPR84 SPIM 232300 SPHI 232300Z 2400/2424 18010KT CAVOK TX23/2420Z TN18/2411Z FM240400 18006KT 9999 SCT020 TEMPO 2412/2414 OVC015 BECMG 2418/2420 21012KT

Observaciones y pronósticos meteorológicos de más de 4000 aeropuertos (mensajes METAR y TAF).

Los puntos amarillos y rojos representan las estaciones disponibles.

Ponga el ratón en el punto deseado para ver el nombre de la estación.

Haga clic para ver las observaciones y los pronósticos meteorológicos.

Para cambiar el mapa : haga clic en los botones verdes con una cruz de color negro para hacer un zoom, en el botón verde con un guión para alejar o en las flechas verdes para mapas adyacentes.


METAR-TAF: